Terminal Aerodrome Forecast
Issued by NWS

Home | Current Version | Previous Version | Text Only | Print | Product List | Glossary On
Versions: 1 2 3 4 5 6 7 8 9 10 11 12 13 14 15 16 17 18 19 20 21 22 23 24 25 26 27 28 29 30 31 32 33 34 35 36
000
FTUS41 KBOX 300832 AAA
TAFACK
TAF AMD
KACK 300832Z 3009/3106 25010KT 1SM BR BKN003
     FM301100 23012KT 3SM BR BKN003
     FM301300 23012KT P6SM SCT250
     FM301700 22015KT P6SM SCT050
     FM301900 21015G22KT P6SM SCT050 BKN110
     FM310500 21013KT 6SM BR BKN020=

USA.gov is the U.S. government's official web portal to all federal, state and local government web resources and services.